createdAt,value
2022-12-03T00:03:58.898Z,94.98
2022-12-03T00:09:01.759Z,95.09
2022-12-03T00:14:04.636Z,94.91
2022-12-03T00:19:08.790Z,95.34
2022-12-03T00:24:11.515Z,95.30
2022-12-03T00:29:14.303Z,95.28
2022-12-03T00:34:18.380Z,95.47
2022-12-03T00:39:21.226Z,95.04
2022-12-03T00:44:23.985Z,95.21
2022-12-03T00:49:28.111Z,95.28
2022-12-03T00:54:32.253Z,95.28
2022-12-03T00:59:35.156Z,95.58
2022-12-03T01:04:39.394Z,95.53
2022-12-03T01:09:42.217Z,95.36
2022-12-03T01:14:45.182Z,95.62
2022-12-03T01:19:52.284Z,95.48
2022-12-03T01:24:55.411Z,95.62
2022-12-03T01:29:58.291Z,95.60
2022-12-03T01:35:02.410Z,95.53
2022-12-03T01:40:06.100Z,96.02
2022-12-03T01:45:20.392Z,95.86
2022-12-03T01:50:31.070Z,95.60
2022-12-03T01:55:33.956Z,95.45
2022-12-03T02:00:36.727Z,95.63
2022-12-03T02:05:40.830Z,95.31
2022-12-03T02:10:43.612Z,95.74
2022-12-03T02:15:46.690Z,95.82
2022-12-03T02:20:59.543Z,95.87
2022-12-03T02:26:03.661Z,96.18
2022-12-03T02:31:06.484Z,96.37
2022-12-03T02:36:10.141Z,95.86
2022-12-03T02:41:37.941Z,96.10
2022-12-03T02:46:40.886Z,96.03
2022-12-03T02:51:43.729Z,95.72
2022-12-03T02:56:47.862Z,95.58
2022-12-03T03:01:50.686Z,95.64
2022-12-03T03:06:53.846Z,95.83
2022-12-03T03:11:57.922Z,95.23
2022-12-03T03:17:00.806Z,95.37
2022-12-03T03:22:03.622Z,95.12
2022-12-03T03:27:07.814Z,94.86
2022-12-03T03:32:10.654Z,94.91
2022-12-03T03:37:13.543Z,94.76
2022-12-03T03:42:17.982Z,94.30
2022-12-03T03:47:21.156Z,94.26
2022-12-03T03:52:24.272Z,94.18
2022-12-03T03:57:28.495Z,94.00
2022-12-03T04:02:33.085Z,94.14
2022-12-03T04:07:35.915Z,93.92
2022-12-03T04:12:58.504Z,93.92
2022-12-03T04:18:18.923Z,93.98
2022-12-03T04:23:23.939Z,94.17
2022-12-03T04:28:49.339Z,93.95
2022-12-03T04:34:09.799Z,93.88
2022-12-03T04:39:12.571Z,94.22
2022-12-03T04:44:36.174Z,94.34
2022-12-03T04:49:40.614Z,93.86
2022-12-03T04:54:43.391Z,93.75
2022-12-03T04:59:47.480Z,94.35
2022-12-03T05:04:50.241Z,94.30
2022-12-03T05:09:52.953Z,94.04
2022-12-03T05:14:57.063Z,94.06
2022-12-03T05:20:17.273Z,94.73
2022-12-03T05:25:19.991Z,94.34
2022-12-03T05:30:24.134Z,94.11
2022-12-03T05:35:28.444Z,94.10
2022-12-03T05:40:31.212Z,94.49
2022-12-03T05:45:37.292Z,94.22
2022-12-03T05:50:43.192Z,94.32
2022-12-03T05:55:45.957Z,94.63
2022-12-03T06:00:50.053Z,94.17
2022-12-03T06:05:52.776Z,94.40
2022-12-03T06:10:55.486Z,94.88
2022-12-03T06:15:59.662Z,94.95
2022-12-03T06:21:02.413Z,94.96
2022-12-03T06:26:05.253Z,94.99
2022-12-03T06:31:09.455Z,94.83
2022-12-03T06:36:12.242Z,94.66
2022-12-03T06:41:15.006Z,94.81
2022-12-03T06:46:19.102Z,95.45
2022-12-03T06:51:21.891Z,94.95
2022-12-03T06:56:25.760Z,94.98
2022-12-03T07:01:31.499Z,95.03
2022-12-03T07:06:34.320Z,94.48
2022-12-03T07:11:40.772Z,95.14
2022-12-03T07:16:45.065Z,95.08
2022-12-03T07:21:47.814Z,95.02
2022-12-03T07:26:50.549Z,94.81
2022-12-03T07:31:54.750Z,94.94
2022-12-03T07:36:57.544Z,94.83
2022-12-03T07:42:00.282Z,94.62
2022-12-03T07:47:04.537Z,94.67
2022-12-03T07:52:07.317Z,95.11
2022-12-03T07:57:10.026Z,95.09
2022-12-03T08:02:20.773Z,95.14
2022-12-03T08:07:24.452Z,95.48
2022-12-03T08:12:40.048Z,95.36
2022-12-03T08:17:46.568Z,95.45
2022-12-03T08:22:51.373Z,95.35
2022-12-03T08:27:57.747Z,95.60
2022-12-03T08:33:01.866Z,95.53
2022-12-03T08:38:12.248Z,95.72
2022-12-03T08:43:20.924Z,95.60
2022-12-03T08:48:29.104Z,95.68
2022-12-03T08:53:34.278Z,95.96
2022-12-03T08:58:41.815Z,96.21
2022-12-03T09:03:51.161Z,96.19
2022-12-03T09:08:53.921Z,96.29
2022-12-03T09:13:56.661Z,96.29
2022-12-03T09:19:00.779Z,96.40
2022-12-03T09:24:03.518Z,96.80
2022-12-03T09:29:11.869Z,96.52
2022-12-03T09:34:16.761Z,96.56
2022-12-03T09:39:19.542Z,96.33
2022-12-03T09:44:22.520Z,96.22
2022-12-03T09:49:28.838Z,96.00
2022-12-03T09:54:32.513Z,94.88
2022-12-03T09:59:35.634Z,94.59
2022-12-03T10:04:39.856Z,94.54
2022-12-03T10:09:42.842Z,94.63
2022-12-03T10:14:45.706Z,93.59
2022-12-03T10:19:50.034Z,94.06
2022-12-03T10:25:08.867Z,93.26
2022-12-03T10:30:20.570Z,93.34
2022-12-03T10:35:26.783Z,93.32
2022-12-03T10:40:31.490Z,93.05
2022-12-03T10:45:34.227Z,92.80
2022-12-03T10:50:55.521Z,92.47
2022-12-03T10:56:01.871Z,92.73
2022-12-03T11:01:14.329Z,92.67
2022-12-03T11:06:20.819Z,92.49
2022-12-03T11:11:26.291Z,91.81
2022-12-03T11:17:11.237Z,91.77
2022-12-03T11:22:27.001Z,91.57
2022-12-03T11:27:29.782Z,91.67
2022-12-03T11:33:09.130Z,91.68
2022-12-03T11:38:52.339Z,91.46
2022-12-03T11:44:29.239Z,91.51
2022-12-03T11:49:37.430Z,91.37
2022-12-03T11:54:41.562Z,91.11
2022-12-03T11:59:58.209Z,91.34
2022-12-03T12:05:26.441Z,90.24
2022-12-03T12:10:45.650Z,90.26
2022-12-03T12:15:48.421Z,89.82
2022-12-03T12:20:51.304Z,90.03
2022-12-03T12:26:07.610Z,90.17
2022-12-03T12:31:12.104Z,90.30
2022-12-03T12:36:14.861Z,89.87
2022-12-03T12:41:18.937Z,90.17
2022-12-03T12:46:47.230Z,90.34
2022-12-03T12:51:46.544Z,90.35
2022-12-03T12:56:51.416Z,90.61
2022-12-03T13:01:54.318Z,90.50
2022-12-03T13:06:57.113Z,90.56
2022-12-03T13:12:04.004Z,90.58
2022-12-03T13:17:15.919Z,90.92
2022-12-03T13:22:21.292Z,91.08
2022-12-03T13:27:29.482Z,91.13
2022-12-03T13:32:34.711Z,91.11
2022-12-03T13:37:38.398Z,91.58
2022-12-03T13:42:42.527Z,91.89
2022-12-03T13:47:46.995Z,91.95
2022-12-03T13:52:49.756Z,91.95
2022-12-03T13:57:54.010Z,91.70
2022-12-03T14:02:56.774Z,91.74
2022-12-03T14:08:02.184Z,90.89
2022-12-03T14:13:06.482Z,90.03
2022-12-03T14:18:09.212Z,90.19
2022-12-03T14:23:11.939Z,89.88
2022-12-03T14:28:16.013Z,90.30
2022-12-03T14:33:18.783Z,90.06
2022-12-03T14:38:21.505Z,89.82
2022-12-03T14:43:25.614Z,90.16
2022-12-03T14:48:28.340Z,90.73
2022-12-03T14:53:31.088Z,90.63
2022-12-03T14:58:35.341Z,91.63
2022-12-03T15:03:38.099Z,92.49
2022-12-03T15:08:40.849Z,92.91
2022-12-03T15:13:44.992Z,92.65
2022-12-03T15:18:47.753Z,93.29
2022-12-03T15:23:50.609Z,92.98
2022-12-03T15:28:54.886Z,93.63
2022-12-03T15:33:57.718Z,93.06
2022-12-03T15:39:00.483Z,93.23
2022-12-03T15:44:04.647Z,92.86
2022-12-03T15:49:07.389Z,92.54
2022-12-03T15:54:12.188Z,92.82
2022-12-03T15:59:16.427Z,92.68
2022-12-03T16:04:19.193Z,92.19
2022-12-03T16:09:27.124Z,92.13
2022-12-03T16:14:31.640Z,91.68
2022-12-03T16:19:34.889Z,91.26
2022-12-03T16:24:37.659Z,91.13
2022-12-03T16:29:41.780Z,91.45
2022-12-03T16:34:44.541Z,91.05
2022-12-03T16:39:47.290Z,90.44
2022-12-03T16:45:22.906Z,90.83
2022-12-03T16:50:29.824Z,90.49
2022-12-03T16:55:33.146Z,90.75
2022-12-03T17:00:37.686Z,90.36
2022-12-03T17:05:40.494Z,90.48
2022-12-03T17:10:43.485Z,90.31
2022-12-03T17:15:47.678Z,90.39
2022-12-03T17:20:50.484Z,91.06
2022-12-03T17:25:53.212Z,91.00
2022-12-03T17:30:57.431Z,90.95
2022-12-03T17:36:00.271Z,90.85
2022-12-03T17:41:03.016Z,91.05
2022-12-03T17:46:07.486Z,90.79
2022-12-03T17:51:10.343Z,90.85
2022-12-03T17:56:13.185Z,91.19
2022-12-03T18:01:17.547Z,91.37
2022-12-03T18:06:20.405Z,91.41
2022-12-03T18:11:24.300Z,91.24
2022-12-03T18:16:28.879Z,91.59
2022-12-03T18:21:32.018Z,91.31
2022-12-03T18:26:35.736Z,91.74
2022-12-03T18:31:39.982Z,91.67
2022-12-03T18:36:43.078Z,91.62
2022-12-03T18:41:45.952Z,91.57
2022-12-03T18:46:54.575Z,91.62
2022-12-03T18:51:59.769Z,92.14
2022-12-03T18:57:02.931Z,92.11
2022-12-03T19:02:08.240Z,92.01
2022-12-03T19:07:12.462Z,91.81
2022-12-03T19:12:16.713Z,91.96
2022-12-03T19:17:21.472Z,91.84
2022-12-03T19:22:24.806Z,92.22
2022-12-03T19:27:29.070Z,91.78
2022-12-03T19:32:33.451Z,92.46
2022-12-03T19:37:36.329Z,91.95
2022-12-03T19:42:39.227Z,92.23
2022-12-03T19:47:43.703Z,92.55
2022-12-03T19:52:46.753Z,92.14
2022-12-03T19:57:49.665Z,92.11
2022-12-03T20:02:53.823Z,91.95
2022-12-03T20:07:56.857Z,92.45
2022-12-03T20:12:59.846Z,92.50
2022-12-03T20:18:04.029Z,92.18
2022-12-03T20:23:06.764Z,92.64
2022-12-03T20:28:09.542Z,92.56
2022-12-03T20:33:13.685Z,92.90
2022-12-03T20:38:16.834Z,92.69
2022-12-03T20:43:20.410Z,93.09
2022-12-03T20:48:24.547Z,93.09
2022-12-03T20:53:27.325Z,92.77
2022-12-03T20:58:31.797Z,93.00
2022-12-03T21:03:35.966Z,93.49
2022-12-03T21:08:41.836Z,93.32
2022-12-03T21:13:46.003Z,92.81
2022-12-03T21:18:50.495Z,93.02
2022-12-03T21:23:53.845Z,93.05
2022-12-03T21:28:56.747Z,93.14
2022-12-03T21:34:01.343Z,93.79
2022-12-03T21:39:04.400Z,93.31
2022-12-03T21:44:07.223Z,93.77
2022-12-03T21:49:11.356Z,93.81
2022-12-03T21:54:14.154Z,93.43
2022-12-03T21:59:16.897Z,93.30
2022-12-03T22:04:21.018Z,94.02
2022-12-03T22:09:26.650Z,93.79
2022-12-03T22:14:29.980Z,94.21
2022-12-03T22:19:34.257Z,93.72
2022-12-03T22:24:37.030Z,94.23
2022-12-03T22:29:39.807Z,93.85
2022-12-03T22:34:44.096Z,93.78
2022-12-03T22:39:46.889Z,94.25
2022-12-03T22:44:49.644Z,93.82
2022-12-03T22:49:54.087Z,93.95
2022-12-03T22:54:57.096Z,94.19
2022-12-03T23:00:00.092Z,94.01
2022-12-03T23:05:04.485Z,94.78
2022-12-03T23:10:08.754Z,94.07
2022-12-03T23:15:12.243Z,94.53
2022-12-03T23:20:16.958Z,94.25
2022-12-03T23:25:20.673Z,94.97
2022-12-03T23:30:23.405Z,94.78
2022-12-03T23:35:27.516Z,95.22
2022-12-03T23:40:30.303Z,95.00
2022-12-03T23:45:33.977Z,95.13
2022-12-03T23:50:39.721Z,95.15
2022-12-03T23:55:42.493Z,95.55
